createdAt,value
2017-11-30T00:02:23.547Z,79.20
2017-11-30T00:04:51.710Z,79.30
2017-11-30T00:07:19.897Z,79.30
2017-11-30T00:09:48.069Z,79.80
2017-11-30T00:12:16.320Z,80.00
2017-11-30T00:14:44.499Z,79.60
2017-11-30T00:17:12.691Z,79.40
2017-11-30T00:19:40.880Z,79.30
2017-11-30T00:22:09.122Z,78.80
2017-11-30T00:24:37.289Z,78.30
2017-11-30T00:27:05.476Z,78.40
2017-11-30T00:29:33.635Z,78.00
2017-11-30T00:32:01.823Z,78.20
2017-11-30T00:34:29.993Z,78.10
2017-11-30T00:36:58.218Z,78.50
2017-11-30T00:39:27.147Z,78.60
2017-11-30T00:41:55.321Z,78.50
2017-11-30T00:44:34.229Z,78.90
2017-11-30T00:47:02.402Z,79.00
2017-11-30T00:49:30.613Z,79.30
2017-11-30T00:51:58.801Z,79.50
2017-11-30T00:54:27.003Z,78.90
2017-11-30T00:56:55.936Z,78.50
2017-11-30T00:59:24.135Z,78.50
2017-11-30T01:01:52.312Z,78.80
2017-11-30T01:04:20.504Z,79.20
2017-11-30T01:06:48.670Z,79.50
2017-11-30T01:09:17.644Z,80.20
2017-11-30T01:11:45.808Z,80.00
2017-11-30T01:14:14.021Z,80.10
2017-11-30T01:16:42.181Z,80.40
2017-11-30T01:19:10.402Z,79.80
2017-11-30T01:21:38.569Z,79.50
2017-11-30T01:24:06.760Z,79.40
2017-11-30T01:26:34.961Z,80.00
2017-11-30T01:29:03.161Z,79.30
2017-11-30T01:31:31.380Z,79.30
2017-11-30T01:33:59.558Z,79.40
2017-11-30T01:36:27.761Z,79.10
2017-11-30T01:38:56.189Z,79.00
2017-11-30T01:41:25.143Z,77.70
2017-11-30T01:43:53.302Z,77.60
2017-11-30T01:46:21.527Z,77.60
2017-11-30T01:48:50.470Z,78.40
2017-11-30T01:51:18.682Z,79.20
2017-11-30T01:53:46.840Z,78.30
2017-11-30T01:56:15.061Z,78.50
2017-11-30T01:58:43.239Z,79.60
2017-11-30T02:01:11.431Z,79.60
2017-11-30T02:03:39.592Z,80.20
2017-11-30T02:06:07.784Z,79.80
2017-11-30T02:08:35.944Z,80.00
2017-11-30T02:11:04.219Z,79.30
2017-11-30T02:13:32.403Z,79.00
2017-11-30T02:16:00.609Z,79.10
2017-11-30T02:18:28.783Z,78.30
2017-11-30T02:20:57.004Z,79.20
2017-11-30T02:23:25.172Z,79.80
2017-11-30T02:25:53.350Z,79.80
2017-11-30T02:28:21.546Z,79.60
2017-11-30T02:30:49.723Z,79.70
2017-11-30T02:33:17.911Z,79.20
2017-11-30T02:35:46.101Z,78.80
2017-11-30T02:38:14.297Z,79.50
2017-11-30T02:40:42.461Z,79.30
2017-11-30T02:43:10.656Z,79.70
2017-11-30T02:45:39.585Z,80.60
2017-11-30T02:48:07.767Z,80.40
2017-11-30T02:50:35.965Z,80.00
2017-11-30T02:53:04.167Z,79.60
2017-11-30T02:55:32.703Z,80.10
2017-11-30T02:58:00.918Z,79.50
2017-11-30T03:00:29.069Z,79.10
2017-11-30T03:02:57.265Z,79.10
2017-11-30T03:05:26.240Z,78.90
2017-11-30T03:07:54.413Z,78.90
2017-11-30T03:10:22.600Z,78.60
2017-11-30T03:12:50.804Z,78.30
2017-11-30T03:15:18.964Z,77.10
2017-11-30T03:17:47.928Z,77.50
2017-11-30T03:20:16.079Z,77.50
2017-11-30T03:22:44.283Z,77.50
2017-11-30T03:25:12.673Z,77.60
2017-11-30T03:27:41.656Z,76.90
2017-11-30T03:30:09.815Z,76.90
2017-11-30T03:32:38.019Z,76.50
2017-11-30T03:35:06.971Z,76.80
2017-11-30T03:37:35.181Z,76.70
2017-11-30T03:40:03.366Z,77.20
2017-11-30T03:42:31.545Z,77.90
2017-11-30T03:45:00.503Z,78.20
2017-11-30T03:47:28.659Z,78.10
2017-11-30T03:49:56.860Z,77.40
2017-11-30T03:52:25.055Z,78.20
2017-11-30T03:54:53.302Z,78.40
2017-11-30T03:57:21.475Z,77.90
2017-11-30T03:59:49.661Z,78.20
2017-11-30T04:02:17.847Z,77.80
2017-11-30T04:04:46.050Z,78.60
2017-11-30T04:07:14.999Z,78.60
2017-11-30T04:09:43.176Z,78.60
2017-11-30T04:12:11.348Z,78.60
2017-11-30T04:14:39.553Z,78.40
2017-11-30T04:17:07.757Z,78.30
2017-11-30T04:19:35.930Z,78.20
2017-11-30T04:22:04.123Z,78.10
2017-11-30T04:24:32.315Z,78.10
2017-11-30T04:27:00.467Z,77.60
2017-11-30T04:29:29.101Z,77.70
2017-11-30T04:31:57.256Z,76.80
2017-11-30T04:34:25.444Z,76.60
2017-11-30T04:36:53.621Z,77.00
2017-11-30T04:39:21.799Z,77.50
2017-11-30T04:41:49.948Z,76.10
2017-11-30T04:44:18.356Z,75.80
2017-11-30T04:46:46.533Z,76.10
2017-11-30T04:49:14.709Z,76.50
2017-11-30T04:51:42.860Z,76.20
2017-11-30T04:54:11.251Z,76.50
2017-11-30T04:56:39.442Z,77.10
2017-11-30T04:59:08.389Z,77.80
2017-11-30T05:01:37.116Z,77.80
2017-11-30T05:04:06.076Z,77.00
2017-11-30T05:06:34.261Z,77.00
2017-11-30T05:09:02.452Z,77.00
2017-11-30T05:11:31.416Z,76.90
2017-11-30T05:13:59.594Z,76.90
2017-11-30T05:16:27.776Z,76.80
2017-11-30T05:18:55.961Z,76.50
2017-11-30T05:21:24.152Z,76.80
2017-11-30T05:23:52.286Z,76.70
2017-11-30T05:26:20.485Z,76.90
2017-11-30T05:28:48.658Z,75.90
2017-11-30T05:31:16.844Z,75.50
2017-11-30T05:33:45.000Z,75.70
2017-11-30T05:36:13.176Z,74.50
2017-11-30T05:38:41.336Z,74.30
2017-11-30T05:41:09.532Z,74.90
2017-11-30T05:43:37.687Z,74.60
2017-11-30T05:46:05.879Z,73.80
2017-11-30T05:48:34.047Z,74.20
2017-11-30T05:51:02.228Z,74.10
2017-11-30T05:53:30.387Z,74.30
2017-11-30T05:55:58.555Z,74.10
2017-11-30T05:58:26.718Z,75.20
2017-11-30T06:00:54.924Z,74.70
2017-11-30T06:03:23.078Z,74.50
2017-11-30T06:05:51.269Z,74.30
2017-11-30T06:08:19.436Z,74.20
2017-11-30T06:10:47.597Z,73.90
2017-11-30T06:13:15.785Z,74.20
2017-11-30T06:15:43.961Z,74.60
2017-11-30T06:18:12.139Z,75.40
2017-11-30T06:20:40.304Z,74.50
2017-11-30T06:23:08.583Z,75.10
2017-11-30T06:25:36.735Z,74.80
2017-11-30T06:28:04.910Z,74.00
2017-11-30T06:30:33.076Z,72.80
2017-11-30T06:33:01.307Z,72.60
2017-11-30T06:35:29.468Z,72.80
2017-11-30T06:37:57.657Z,73.30
2017-11-30T06:40:26.576Z,73.60
2017-11-30T06:42:54.758Z,73.60
2017-11-30T06:45:22.902Z,74.30
2017-11-30T06:47:51.074Z,74.30
2017-11-30T06:50:19.238Z,74.00
2017-11-30T06:52:47.451Z,73.60
2017-11-30T06:55:15.615Z,72.90
2017-11-30T06:57:44.536Z,73.10
2017-11-30T07:00:12.700Z,73.20
2017-11-30T07:02:41.084Z,73.00
2017-11-30T07:05:11.363Z,72.60
2017-11-30T07:07:41.109Z,72.60
2017-11-30T07:10:10.222Z,72.20
2017-11-30T07:12:38.989Z,71.20
2017-11-30T07:15:08.185Z,71.10
2017-11-30T07:17:36.376Z,71.30
2017-11-30T07:20:05.371Z,72.10
2017-11-30T07:22:33.543Z,71.40
2017-11-30T07:25:01.821Z,70.70
2017-11-30T07:27:29.988Z,72.00
2017-11-30T07:29:58.194Z,72.60
2017-11-30T07:32:27.127Z,72.80
2017-11-30T07:34:55.341Z,72.80
2017-11-30T07:37:23.500Z,70.70
2017-11-30T07:39:52.524Z,69.50
2017-11-30T07:42:21.404Z,70.90
2017-11-30T07:44:49.581Z,71.20
2017-11-30T07:47:17.735Z,70.10
2017-11-30T07:49:45.992Z,69.50
2017-11-30T07:52:14.896Z,69.90
2017-11-30T07:54:43.227Z,70.20
2017-11-30T07:57:11.536Z,70.70
2017-11-30T07:59:39.721Z,70.30
2017-11-30T08:02:22.921Z,70.30
2017-11-30T08:04:52.576Z,70.30
2017-11-30T08:07:20.750Z,70.40
2017-11-30T08:09:49.432Z,69.20
2017-11-30T08:12:17.598Z,69.10
2017-11-30T08:14:46.556Z,68.20
2017-11-30T08:17:14.717Z,68.20
2017-11-30T08:19:42.863Z,69.10
2017-11-30T08:22:11.051Z,68.90
2017-11-30T08:24:39.216Z,68.40
2017-11-30T08:27:07.407Z,68.30
2017-11-30T08:29:35.563Z,67.50
2017-11-30T08:32:03.747Z,68.80
2017-11-30T08:34:31.899Z,70.40
2017-11-30T08:37:00.076Z,69.70
2017-11-30T08:39:28.522Z,68.10
2017-11-30T08:45:32.507Z,68.60
2017-11-30T08:48:00.848Z,68.00
2017-11-30T08:50:29.060Z,68.50
2017-11-30T08:52:57.208Z,68.70
2017-11-30T08:55:25.387Z,68.40
2017-11-30T08:57:53.564Z,67.50
2017-11-30T09:00:21.728Z,67.90
2017-11-30T09:02:49.923Z,67.30
2017-11-30T09:05:18.076Z,66.80
2017-11-30T09:07:46.285Z,68.00
2017-11-30T09:10:14.442Z,68.90
2017-11-30T09:12:42.624Z,67.40
2017-11-30T09:15:10.788Z,67.00
2017-11-30T09:17:38.978Z,66.90
2017-11-30T09:20:08.227Z,66.80
2017-11-30T09:22:37.013Z,66.60
2017-11-30T09:25:05.208Z,66.50
2017-11-30T09:27:34.154Z,67.90
2017-11-30T09:30:02.387Z,67.90
2017-11-30T09:32:31.337Z,67.60
2017-11-30T09:34:59.515Z,67.60
2017-11-30T09:37:27.737Z,67.60
2017-11-30T09:39:55.897Z,66.90
2017-11-30T09:42:25.216Z,66.00
2017-11-30T09:44:54.364Z,66.60
2017-11-30T09:47:22.566Z,67.10
2017-11-30T09:49:51.477Z,67.20
2017-11-30T09:52:19.656Z,67.20
2017-11-30T09:54:47.886Z,67.00
2017-11-30T09:57:16.071Z,67.30
2017-11-30T09:59:46.246Z,66.20
2017-11-30T10:02:19.297Z,66.50
2017-11-30T10:04:49.167Z,67.10
2017-11-30T10:07:17.432Z,67.10
2017-11-30T10:09:45.610Z,66.00
2017-11-30T10:12:13.842Z,65.50
2017-11-30T10:14:42.017Z,65.00
2017-11-30T10:17:10.454Z,64.90
2017-11-30T10:19:40.809Z,65.80
2017-11-30T10:22:09.224Z,65.30
2017-11-30T10:24:37.389Z,65.10
2017-11-30T10:27:05.745Z,64.00
2017-11-30T10:29:34.701Z,62.70
2017-11-30T10:32:02.895Z,62.70
2017-11-30T10:34:31.843Z,61.50
2017-11-30T10:37:00.993Z,62.00
2017-11-30T10:39:29.930Z,61.30
2017-11-30T10:41:58.089Z,61.30
2017-11-30T10:47:24.515Z,61.80
2017-11-30T10:49:53.207Z,61.80
2017-11-30T10:52:22.407Z,60.50
2017-11-30T10:54:53.797Z,61.50
2017-11-30T10:57:21.990Z,61.50
2017-11-30T10:59:50.958Z,61.60
2017-11-30T11:02:19.115Z,61.60
2017-11-30T11:04:47.288Z,62.40
2017-11-30T11:07:15.435Z,62.80
2017-11-30T11:09:43.635Z,63.10
2017-11-30T11:12:11.819Z,63.20
2017-11-30T11:14:39.981Z,64.80
2017-11-30T11:17:08.147Z,64.70
2017-11-30T11:19:36.324Z,64.70
2017-11-30T11:22:04.547Z,64.20
2017-11-30T11:24:32.740Z,63.50
2017-11-30T11:27:01.669Z,64.20
2017-11-30T11:29:29.872Z,64.20
2017-11-30T11:31:58.029Z,65.50
2017-11-30T11:34:26.221Z,65.50
2017-11-30T11:36:54.367Z,66.00
2017-11-30T11:39:22.845Z,66.10
2017-11-30T11:41:51.227Z,66.50
2017-11-30T11:44:19.589Z,67.10
2017-11-30T11:46:48.734Z,67.60
2017-11-30T11:49:17.063Z,66.90
2017-11-30T11:51:45.281Z,68.20
2017-11-30T11:54:13.424Z,67.90
2017-11-30T11:56:41.601Z,67.70
2017-11-30T11:59:09.763Z,67.80
2017-11-30T12:01:37.934Z,68.20
2017-11-30T12:04:06.079Z,68.60
2017-11-30T12:06:35.040Z,69.70
2017-11-30T12:09:03.187Z,69.70
2017-11-30T12:11:31.375Z,69.90
2017-11-30T12:13:59.534Z,69.20
2017-11-30T12:16:27.721Z,69.20
2017-11-30T12:18:56.127Z,68.00
2017-11-30T12:24:35.013Z,67.90
2017-11-30T12:27:04.271Z,67.60
2017-11-30T12:29:33.286Z,68.60
2017-11-30T12:32:01.463Z,68.60
2017-11-30T12:34:29.751Z,68.50
2017-11-30T12:36:57.923Z,69.30
2017-11-30T12:39:26.074Z,69.50
2017-11-30T12:41:54.247Z,70.10
2017-11-30T12:44:22.414Z,69.70
2017-11-30T12:46:51.362Z,69.50
2017-11-30T12:49:19.520Z,69.40
2017-11-30T12:51:47.683Z,69.80
2017-11-30T12:54:15.859Z,69.60
2017-11-30T12:56:44.743Z,69.90
2017-11-30T12:59:12.877Z,70.40
2017-11-30T13:01:42.049Z,69.40
2017-11-30T13:04:10.562Z,69.40
2017-11-30T13:06:38.885Z,69.80
2017-11-30T13:09:08.301Z,70.00
2017-11-30T13:11:36.492Z,70.00
2017-11-30T13:14:04.635Z,69.10
2017-11-30T13:16:32.806Z,69.50
2017-11-30T13:19:00.978Z,70.60
2017-11-30T13:21:29.116Z,70.60
2017-11-30T13:23:58.037Z,71.70
2017-11-30T13:26:26.168Z,71.70
2017-11-30T13:28:54.317Z,71.70
2017-11-30T13:31:22.450Z,71.40
2017-11-30T13:33:50.601Z,71.70
2017-11-30T13:36:19.501Z,71.20
2017-11-30T13:38:47.662Z,71.20
2017-11-30T13:41:16.557Z,71.30
2017-11-30T13:43:45.494Z,71.50
2017-11-30T13:46:13.973Z,71.50
2017-11-30T13:48:42.856Z,72.00
2017-11-30T13:51:11.421Z,72.60
2017-11-30T13:53:40.332Z,73.20
2017-11-30T13:56:08.456Z,73.20
2017-11-30T13:58:36.630Z,73.10
2017-11-30T14:01:04.761Z,74.10
2017-11-30T14:03:32.917Z,74.20
2017-11-30T14:06:01.035Z,74.30
2017-11-30T14:08:29.185Z,73.70
2017-11-30T14:10:57.319Z,73.80
2017-11-30T14:13:26.293Z,72.00
2017-11-30T14:15:54.514Z,72.00
2017-11-30T14:18:22.641Z,72.10
2017-11-30T14:20:50.772Z,72.30
2017-11-30T14:23:18.981Z,72.80
2017-11-30T14:25:47.197Z,73.60
2017-11-30T14:28:15.344Z,72.50
2017-11-30T14:30:43.517Z,72.70
2017-11-30T14:33:11.663Z,72.40
2017-11-30T14:35:41.053Z,72.90
2017-11-30T14:38:09.192Z,73.60
2017-11-30T14:40:38.133Z,75.20
2017-11-30T14:43:06.264Z,75.20
2017-11-30T14:45:35.187Z,74.50
2017-11-30T14:48:03.332Z,74.50
2017-11-30T14:50:31.512Z,73.30
2017-11-30T14:52:59.806Z,72.00
2017-11-30T14:55:28.305Z,73.30
2017-11-30T14:57:56.604Z,74.50
2017-11-30T15:00:24.766Z,75.20
2017-11-30T15:02:53.265Z,75.60
2017-11-30T15:05:21.449Z,75.60
2017-11-30T15:07:50.363Z,75.20
2017-11-30T15:10:19.331Z,73.30
2017-11-30T15:12:47.565Z,73.30
2017-11-30T15:15:15.821Z,72.90
2017-11-30T15:17:44.032Z,73.90
2017-11-30T15:20:12.214Z,75.10
2017-11-30T15:22:40.420Z,74.60
2017-11-30T15:25:09.344Z,74.70
2017-11-30T15:27:37.465Z,74.70
2017-11-30T15:30:06.433Z,73.00
2017-11-30T15:32:34.985Z,73.00
2017-11-30T15:35:03.152Z,73.10
2017-11-30T15:37:31.362Z,73.80
2017-11-30T15:39:59.515Z,75.20
2017-11-30T15:42:27.663Z,74.80
2017-11-30T15:44:56.586Z,73.80
2017-11-30T15:47:24.741Z,73.80
2017-11-30T15:49:52.899Z,74.10
2017-11-30T15:52:21.790Z,75.30
2017-11-30T15:54:50.708Z,75.50
2017-11-30T15:57:18.841Z,75.60
2017-11-30T15:59:47.018Z,74.60
2017-11-30T16:02:15.919Z,75.40
2017-11-30T16:04:44.805Z,75.50
2017-11-30T16:07:12.952Z,75.50
2017-11-30T16:09:41.090Z,75.00
2017-11-30T16:12:09.237Z,74.20
2017-11-30T16:14:38.143Z,75.40
2017-11-30T16:17:06.280Z,75.40
2017-11-30T16:19:35.185Z,73.00
2017-11-30T16:22:04.099Z,72.80
2017-11-30T16:24:32.255Z,72.90
2017-11-30T16:27:01.173Z,73.00
2017-11-30T16:29:29.302Z,73.00
2017-11-30T16:31:58.266Z,73.40
2017-11-30T16:34:27.067Z,73.30
2017-11-30T16:36:55.229Z,74.00
2017-11-30T16:39:23.378Z,73.70
2017-11-30T16:41:52.358Z,73.70
2017-11-30T16:44:21.296Z,73.70
2017-11-30T16:46:49.464Z,73.80
2017-11-30T16:49:17.626Z,73.90
2017-11-30T16:51:45.786Z,73.90
2017-11-30T16:54:13.924Z,73.70
2017-11-30T16:56:42.861Z,73.60
2017-11-30T16:59:11.031Z,73.60
2017-11-30T17:01:39.200Z,73.70
2017-11-30T17:04:07.344Z,73.80
2017-11-30T17:06:35.497Z,74.90
2017-11-30T17:09:03.638Z,74.80
2017-11-30T17:11:31.793Z,75.00
2017-11-30T17:13:59.929Z,74.60
2017-11-30T17:16:28.844Z,72.50
2017-11-30T17:18:57.008Z,72.50
2017-11-30T17:21:25.144Z,72.10
2017-11-30T17:23:54.072Z,73.40
2017-11-30T17:26:22.961Z,73.90
2017-11-30T17:28:51.108Z,73.90
2017-11-30T17:31:20.012Z,73.90
2017-11-30T17:33:48.932Z,74.80
2017-11-30T17:36:17.115Z,74.90
2017-11-30T17:38:45.277Z,74.30
2017-11-30T17:41:13.443Z,73.70
2017-11-30T17:43:41.619Z,73.60
2017-11-30T17:46:09.831Z,73.70
2017-11-30T17:48:38.004Z,74.40
2017-11-30T17:51:06.137Z,75.10
2017-11-30T17:53:35.054Z,74.10
2017-11-30T17:56:03.229Z,74.20
2017-11-30T17:58:31.401Z,74.70
2017-11-30T18:00:59.593Z,74.50
2017-11-30T18:03:27.766Z,75.60
2017-11-30T18:05:55.939Z,76.60
2017-11-30T18:08:24.098Z,77.40
2017-11-30T18:10:52.222Z,77.40
2017-11-30T18:13:20.402Z,77.60
2017-11-30T18:15:48.535Z,77.10
2017-11-30T18:18:16.718Z,76.10
2017-11-30T18:20:44.854Z,74.70
2017-11-30T18:23:13.030Z,74.80
2017-11-30T18:25:41.159Z,74.50
2017-11-30T18:28:09.330Z,74.90
2017-11-30T18:30:37.452Z,75.10
2017-11-30T18:33:05.628Z,75.00
2017-11-30T18:35:33.753Z,75.40
2017-11-30T18:38:01.901Z,75.70
2017-11-30T18:40:30.026Z,75.60
2017-11-30T18:42:58.979Z,75.50
2017-11-30T18:45:27.141Z,75.50
2017-11-30T18:47:55.277Z,76.30
2017-11-30T18:50:23.433Z,76.20
2017-11-30T18:52:52.352Z,75.50
2017-11-30T18:55:20.497Z,75.50
2017-11-30T18:57:49.395Z,75.50
2017-11-30T19:00:18.322Z,76.70
2017-11-30T19:02:46.453Z,76.60
2017-11-30T19:05:15.387Z,76.30
2017-11-30T19:07:43.566Z,76.20
2017-11-30T19:10:11.714Z,75.70
2017-11-30T19:12:39.832Z,75.20
2017-11-30T19:15:07.980Z,75.00
2017-11-30T19:17:36.161Z,75.00
2017-11-30T19:20:05.705Z,75.50
2017-11-30T19:22:33.849Z,75.60
2017-11-30T19:25:02.004Z,75.30
2017-11-30T19:27:30.184Z,75.20
2017-11-30T19:29:58.357Z,75.20
2017-11-30T19:32:26.478Z,74.90
2017-11-30T19:34:54.646Z,75.00
2017-11-30T19:37:22.777Z,75.70
2017-11-30T19:39:50.928Z,76.60
2017-11-30T19:42:19.054Z,76.10
2017-11-30T19:44:47.235Z,76.50
2017-11-30T19:47:15.382Z,76.40
2017-11-30T19:49:43.541Z,76.10
2017-11-30T19:52:11.692Z,76.00
2017-11-30T19:54:40.613Z,76.00
2017-11-30T19:57:08.787Z,76.00
2017-11-30T19:59:37.016Z,76.10
2017-11-30T20:02:05.159Z,76.30
2017-11-30T20:04:33.314Z,76.50
2017-11-30T20:07:01.451Z,76.80
2017-11-30T20:09:30.370Z,77.00
2017-11-30T20:11:58.553Z,77.00
2017-11-30T20:14:26.681Z,77.30
2017-11-30T20:16:55.630Z,77.70
2017-11-30T20:19:23.789Z,77.70
2017-11-30T20:21:52.002Z,77.60
2017-11-30T20:24:20.150Z,77.80
2017-11-30T20:26:48.300Z,77.60
2017-11-30T20:29:16.430Z,77.60
2017-11-30T20:31:45.354Z,77.30
2017-11-30T20:34:13.491Z,77.40
2017-11-30T20:36:41.664Z,77.40
2017-11-30T20:39:09.781Z,77.40
2017-11-30T20:41:37.934Z,77.60
2017-11-30T20:44:06.841Z,77.70
2017-11-30T20:46:35.009Z,77.70
2017-11-30T20:49:03.560Z,77.90
2017-11-30T20:51:31.898Z,77.80
2017-11-30T20:54:00.050Z,77.20
2017-11-30T20:56:29.089Z,77.20
2017-11-30T20:58:57.257Z,77.20
2017-11-30T21:01:25.419Z,77.40
2017-11-30T21:03:53.564Z,77.60
2017-11-30T21:06:22.916Z,77.20
2017-11-30T21:08:51.842Z,77.20
2017-11-30T21:11:20.761Z,77.00
2017-11-30T21:13:48.936Z,77.00
2017-11-30T21:16:17.101Z,76.90
2017-11-30T21:18:45.255Z,78.00
2017-11-30T21:21:14.143Z,77.70
2017-11-30T21:23:43.217Z,77.60
2017-11-30T21:26:11.355Z,77.60
2017-11-30T21:28:39.501Z,78.00
2017-11-30T21:31:07.624Z,77.90
2017-11-30T21:33:35.786Z,77.80
2017-11-30T21:36:04.143Z,77.80
2017-11-30T21:38:32.446Z,77.30
2017-11-30T21:41:00.634Z,77.00
2017-11-30T21:43:28.788Z,77.00
2017-11-30T21:45:56.918Z,77.60
2017-11-30T21:48:25.125Z,77.50
2017-11-30T21:50:53.254Z,77.60
2017-11-30T21:53:22.181Z,77.60
2017-11-30T21:55:50.390Z,77.40
2017-11-30T21:58:18.522Z,76.60
2017-11-30T22:00:46.668Z,77.30
2017-11-30T22:03:15.595Z,76.10
2017-11-30T22:05:43.712Z,76.10
2017-11-30T22:08:11.856Z,75.90
2017-11-30T22:10:39.985Z,76.00
2017-11-30T22:13:08.896Z,76.80
2017-11-30T22:15:37.033Z,76.80
2017-11-30T22:18:05.295Z,77.50
2017-11-30T22:20:33.457Z,76.80
2017-11-30T22:23:01.742Z,76.40
2017-11-30T22:25:29.958Z,76.20
2017-11-30T22:27:58.174Z,76.70
2017-11-30T22:30:26.352Z,76.20
2017-11-30T22:32:54.492Z,75.80
2017-11-30T22:35:22.669Z,76.10
2017-11-30T22:37:50.807Z,76.50
2017-11-30T22:40:19.733Z,77.40
2017-11-30T22:42:47.866Z,77.40
2017-11-30T22:45:16.808Z,78.30
2017-11-30T22:47:44.946Z,78.40
2017-11-30T22:50:13.888Z,78.70
2017-11-30T22:52:42.011Z,78.60
2017-11-30T22:55:10.925Z,79.20
2017-11-30T22:57:39.103Z,79.20
2017-11-30T23:00:07.346Z,79.10
2017-11-30T23:02:40.400Z,79.50
2017-11-30T23:05:08.624Z,80.00
2017-11-30T23:07:36.805Z,80.00
2017-11-30T23:10:04.970Z,79.60
2017-11-30T23:12:33.881Z,79.80
2017-11-30T23:15:02.102Z,80.40
2017-11-30T23:17:31.021Z,79.80
2017-11-30T23:19:59.946Z,79.80
2017-11-30T23:22:28.943Z,80.20
2017-11-30T23:24:57.106Z,79.50
2017-11-30T23:27:25.241Z,78.80
2017-11-30T23:29:54.182Z,78.20
2017-11-30T23:32:22.320Z,78.20
2017-11-30T23:34:51.244Z,78.70
2017-11-30T23:37:19.380Z,78.70
2017-11-30T23:39:48.312Z,79.30
2017-11-30T23:42:16.508Z,80.00
2017-11-30T23:44:44.675Z,78.90
2017-11-30T23:47:12.880Z,79.40
2017-11-30T23:49:41.450Z,79.50
2017-11-30T23:52:09.773Z,79.30
2017-11-30T23:54:37.934Z,79.50
2017-11-30T23:57:06.820Z,79.00
2017-11-30T23:59:36.684Z,78.10
